MST,Max TemperatureF,Mean TemperatureF,Min TemperatureF,Max Dew PointF,MeanDew PointF,Min DewpointF,Max Humidity, Mean Humidity, Min Humidity, Max Sea Level PressureIn, Mean Sea Level PressureIn, Min Sea Level PressureIn, Max VisibilityMiles, Mean VisibilityMiles, Min VisibilityMiles, Max Wind SpeedMPH, Mean Wind SpeedMPH, Max Gust SpeedMPH,PrecipitationIn, CloudCover, Events, WindDirDegrees
2012-11-1,48,37,26,,,,,,,30.06,30.00,29.95,10,10,3,23,5,39,0.00,3,Rain,209
2012-11-2,37,30,23,,,,,,,30.19,30.13,30.05,10,10,10,12,5,16,0.00,1,,227
2012-11-3,46,34,23,,,,,,,30.26,30.23,30.18,10,10,10,17,4,23,0.00,2,,218
2012-11-4,48,40,32,,,,,,,30.44,30.36,30.25,10,10,10,16,5,23,0.00,5,,229
2012-11-5,48,37,26,,,,,,,30.44,30.40,30.35,10,10,10,17,5,24,0.00,1,,225
2012-11-6,50,39,28,,,,,,,30.39,30.32,30.20,10,10,10,14,3,21,0.00,3,,205
2012-11-7,50,37,24,,,,,,,30.19,30.03,29.93,10,10,10,24,5,33,0.00,2,,218
2012-11-8,44,38,32,,,,,,,29.92,29.74,29.59,10,9,3,16,3,21,0.02,6,Rain,151
2012-11-9,32,28,23,,,,,,,29.64,29.59,29.54,10,6,1,14,4,18,0.05,7,Rain-Snow,216
2012-11-10,23,10,-2,,,,,,,29.86,29.70,29.59,10,8,2,14,4,16,0.00,6,Snow,251
2012-11-11,17,2,-13,,,,,,,30.26,30.04,29.86,10,9,3,17,4,24,0.00,5,Snow,226
2012-11-12,23,19,15,,,,,,,30.34,30.30,30.27,10,7,2,16,10,24,0.00,7,Snow,211
2012-11-13,28,24,21,,,,,,,30.31,30.26,30.18,10,9,2,17,8,24,0.00,8,Rain-Snow,203
2012-11-14,32,26,21,,,,,,,30.29,30.19,30.15,10,9,2,17,10,22,0.00,7,,218
2012-11-15,32,24,15,,,,,,,30.33,30.27,30.19,10,10,2,12,2,18,0.00,6,,213
2012-11-16,37,22,6,,,,,,,30.18,30.10,30.05,10,8,0,15,1,21,0.00,5,Fog-Rain-Snow,199
2012-11-17,37,34,30,,,,,,,30.10,30.02,29.90,10,10,3,9,2,,0.01,8,Rain,202
2012-11-18,37,34,32,,,,,,,30.10,29.94,29.84,10,7,1,23,10,32,0.13,6,Rain-Snow,209
2012-11-19,37,34,32,,,,,,,30.22,30.16,30.10,10,7,2,15,10,24,0.00,7,Rain-Snow,213
2012-11-20,37,34,32,,,,,,,30.17,30.08,30.02,10,9,5,10,5,18,0.00,7,Rain,140
2012-11-21,39,32,24,,,,,,,30.04,29.91,29.79,10,9,0,33,9,45,0.00,6,Rain-Snow,226
2012-11-22,28,22,15,,,,,,,30.49,30.30,30.05,10,10,10,14,8,22,0.00,2,,231
2012-11-23,35,24,14,,,,,,,30.50,30.41,30.25,10,10,10,13,1,17,0.00,3,,182
2012-11-24,33,28,23,,,,,,,30.25,30.12,30.00,10,9,2,17,9,24,0.00,7,Snow,205
2012-11-25,35,25,14,,,,,,,30.16,29.97,29.89,10,8,1,16,8,24,0.00,5,Rain-Snow,237
2012-11-26,28,14,0,,,,,,,30.28,30.22,30.16,10,10,10,16,2,21,0.00,2,,199
2012-11-27,33,24,15,,,,,,,30.24,30.21,30.18,10,10,10,14,3,23,0.00,6,,207
2012-11-28,41,26,12,,,,,,,30.22,30.12,29.98,10,7,0,9,1,,0.00,4,Fog,202
2012-11-29,35,32,28,,,,,,,30.08,30.03,29.98,10,7,1,20,7,31,0.00,7,Rain-Snow,210
2012-11-30,39,36,32,,,,,,,30.00,29.87,29.80,10,6,1,17,7,24,0.00,6,Rain-Snow,208